sensor_id;sensor_type;location;lat;lon;timestamp;temperature;humidity
44461;DHT22;30162;53.642;10.640;2022-07-29T00:00:41;17.60;73.50
44461;DHT22;30162;53.642;10.640;2022-07-29T00:03:12;17.60;73.70
44461;DHT22;30162;53.642;10.640;2022-07-29T00:05:39;17.40;74.20
44461;DHT22;30162;53.642;10.640;2022-07-29T00:08:05;17.40;74.10
44461;DHT22;30162;53.642;10.640;2022-07-29T00:10:31;17.30;74.40
44461;DHT22;30162;53.642;10.640;2022-07-29T00:12:57;17.30;74.40
44461;DHT22;30162;53.642;10.640;2022-07-29T00:15:22;17.40;74.10
44461;DHT22;30162;53.642;10.640;2022-07-29T00:17:48;17.40;74.40
44461;DHT22;30162;53.642;10.640;2022-07-29T00:20:14;17.30;74.30
44461;DHT22;30162;53.642;10.640;2022-07-29T00:22:39;17.20;74.70
44461;DHT22;30162;53.642;10.640;2022-07-29T00:25:06;17.10;74.90
44461;DHT22;30162;53.642;10.640;2022-07-29T00:27:32;17.20;74.70
44461;DHT22;30162;53.642;10.640;2022-07-29T00:29:57;17.10;75.00
44461;DHT22;30162;53.642;10.640;2022-07-29T00:32:23;16.90;75.40
44461;DHT22;30162;53.642;10.640;2022-07-29T00:34:48;16.80;75.80
44461;DHT22;30162;53.642;10.640;2022-07-29T00:37:33;16.80;75.80
44461;DHT22;30162;53.642;10.640;2022-07-29T00:39:58;16.90;75.60
44461;DHT22;30162;53.642;10.640;2022-07-29T00:42:24;16.70;76.20
44461;DHT22;30162;53.642;10.640;2022-07-29T00:44:49;16.60;76.80
44461;DHT22;30162;53.642;10.640;2022-07-29T00:47:15;16.60;77.00
44461;DHT22;30162;53.642;10.640;2022-07-29T00:49:41;16.60;76.60
44461;DHT22;30162;53.642;10.640;2022-07-29T00:52:09;16.50;76.70
44461;DHT22;30162;53.642;10.640;2022-07-29T00:54:35;16.40;77.30
44461;DHT22;30162;53.642;10.640;2022-07-29T00:57:02;16.20;77.40
44461;DHT22;30162;53.642;10.640;2022-07-29T00:59:28;16.10;78.20
44461;DHT22;30162;53.642;10.640;2022-07-29T01:01:54;16.10;78.30
44461;DHT22;30162;53.642;10.640;2022-07-29T01:04:21;16.00;78.70
44461;DHT22;30162;53.642;10.640;2022-07-29T01:06:48;16.10;78.80
44461;DHT22;30162;53.642;10.640;2022-07-29T01:09:14;16.10;78.90
44461;DHT22;30162;53.642;10.640;2022-07-29T01:11:42;16.10;79.20
44461;DHT22;30162;53.642;10.640;2022-07-29T01:14:09;16.10;79.30
44461;DHT22;30162;53.642;10.640;2022-07-29T01:16:44;16.30;78.90
44461;DHT22;30162;53.642;10.640;2022-07-29T01:22:00;16.30;78.80
44461;DHT22;30162;53.642;10.640;2022-07-29T01:30:22;16.40;78.90
44461;DHT22;30162;53.642;10.640;2022-07-29T01:32:50;16.40;78.90
44461;DHT22;30162;53.642;10.640;2022-07-29T01:35:25;16.50;79.20
44461;DHT22;30162;53.642;10.640;2022-07-29T01:38:00;16.40;79.20
44461;DHT22;30162;53.642;10.640;2022-07-29T01:43:11;16.30;79.90
44461;DHT22;30162;53.642;10.640;2022-07-29T01:45:44;16.30;80.00
44461;DHT22;30162;53.642;10.640;2022-07-29T01:48:21;16.20;79.80
44461;DHT22;30162;53.642;10.640;2022-07-29T01:50:52;16.20;80.10
44461;DHT22;30162;53.642;10.640;2022-07-29T01:53:29;16.10;80.70
44461;DHT22;30162;53.642;10.640;2022-07-29T01:55:57;16.00;80.80
44461;DHT22;30162;53.642;10.640;2022-07-29T01:58:26;15.80;81.40
44461;DHT22;30162;53.642;10.640;2022-07-29T02:00:52;15.60;82.20
44461;DHT22;30162;53.642;10.640;2022-07-29T02:03:19;15.90;82.50
44461;DHT22;30162;53.642;10.640;2022-07-29T02:05:47;16.00;81.80
44461;DHT22;30162;53.642;10.640;2022-07-29T02:08:15;16.10;81.70
44461;DHT22;30162;53.642;10.640;2022-07-29T02:10:42;16.10;81.90
44461;DHT22;30162;53.642;10.640;2022-07-29T02:13:11;16.20;81.50
44461;DHT22;30162;53.642;10.640;2022-07-29T02:15:37;16.10;81.70
44461;DHT22;30162;53.642;10.640;2022-07-29T02:18:11;16.10;81.50
44461;DHT22;30162;53.642;10.640;2022-07-29T02:20:39;16.10;81.70
44461;DHT22;30162;53.642;10.640;2022-07-29T02:23:06;16.10;81.70
44461;DHT22;30162;53.642;10.640;2022-07-29T02:25:32;15.90;83.20
44461;DHT22;30162;53.642;10.640;2022-07-29T02:27:59;15.80;82.40
44461;DHT22;30162;53.642;10.640;2022-07-29T02:30:27;15.90;82.80
44461;DHT22;30162;53.642;10.640;2022-07-29T02:32:54;15.90;83.00
44461;DHT22;30162;53.642;10.640;2022-07-29T02:35:21;16.00;83.60
44461;DHT22;30162;53.642;10.640;2022-07-29T02:37:47;15.80;83.70
44461;DHT22;30162;53.642;10.640;2022-07-29T02:40:35;15.80;83.80
44461;DHT22;30162;53.642;10.640;2022-07-29T02:43:05;15.70;84.30
44461;DHT22;30162;53.642;10.640;2022-07-29T02:45:32;15.80;83.80
44461;DHT22;30162;53.642;10.640;2022-07-29T02:47:59;15.90;84.20
44461;DHT22;30162;53.642;10.640;2022-07-29T02:50:38;16.00;84.20
44461;DHT22;30162;53.642;10.640;2022-07-29T02:53:14;16.00;83.80
44461;DHT22;30162;53.642;10.640;2022-07-29T02:55:45;15.90;84.50
44461;DHT22;30162;53.642;10.640;2022-07-29T02:58:21;16.00;84.30
44461;DHT22;30162;53.642;10.640;2022-07-29T03:00:52;16.10;84.10
44461;DHT22;30162;53.642;10.640;2022-07-29T03:03:19;16.10;84.00
44461;DHT22;30162;53.642;10.640;2022-07-29T03:05:45;16.20;83.90
44461;DHT22;30162;53.642;10.640;2022-07-29T03:08:11;16.30;83.60
44461;DHT22;30162;53.642;10.640;2022-07-29T03:10:44;16.30;83.60
44461;DHT22;30162;53.642;10.640;2022-07-29T03:13:11;16.10;83.50
44461;DHT22;30162;53.642;10.640;2022-07-29T03:15:38;16.20;84.10
44461;DHT22;30162;53.642;10.640;2022-07-29T03:18:05;16.10;84.30
44461;DHT22;30162;53.642;10.640;2022-07-29T03:20:31;16.00;84.40
44461;DHT22;30162;53.642;10.640;2022-07-29T03:22:57;16.00;84.80
44461;DHT22;30162;53.642;10.640;2022-07-29T03:25:22;16.00;84.70
44461;DHT22;30162;53.642;10.640;2022-07-29T03:27:48;16.10;83.80
44461;DHT22;30162;53.642;10.640;2022-07-29T03:30:15;16.10;84.00
44461;DHT22;30162;53.642;10.640;2022-07-29T03:32:41;16.20;84.00
44461;DHT22;30162;53.642;10.640;2022-07-29T03:35:07;16.20;83.90
44461;DHT22;30162;53.642;10.640;2022-07-29T03:37:34;16.10;84.60
44461;DHT22;30162;53.642;10.640;2022-07-29T03:40:06;16.00;84.90
44461;DHT22;30162;53.642;10.640;2022-07-29T03:42:34;16.00;85.50
44461;DHT22;30162;53.642;10.640;2022-07-29T03:45:07;15.90;85.20
44461;DHT22;30162;53.642;10.640;2022-07-29T03:47:39;16.00;85.60
44461;DHT22;30162;53.642;10.640;2022-07-29T03:50:06;16.10;85.40
44461;DHT22;30162;53.642;10.640;2022-07-29T03:52:34;16.10;85.30
44461;DHT22;30162;53.642;10.640;2022-07-29T03:55:01;16.10;85.50
44461;DHT22;30162;53.642;10.640;2022-07-29T03:57:28;16.20;85.80
44461;DHT22;30162;53.642;10.640;2022-07-29T03:59:55;16.20;85.70
44461;DHT22;30162;53.642;10.640;2022-07-29T04:04:49;16.20;85.80
44461;DHT22;30162;53.642;10.640;2022-07-29T04:07:15;16.20;86.10
44461;DHT22;30162;53.642;10.640;2022-07-29T04:09:41;16.10;86.20
44461;DHT22;30162;53.642;10.640;2022-07-29T04:12:07;16.30;84.90
44461;DHT22;30162;53.642;10.640;2022-07-29T04:14:34;16.50;84.80
44461;DHT22;30162;53.642;10.640;2022-07-29T04:17:04;16.60;85.30
44461;DHT22;30162;53.642;10.640;2022-07-29T04:19:30;16.50;85.00
44461;DHT22;30162;53.642;10.640;2022-07-29T04:21:56;16.60;84.70
44461;DHT22;30162;53.642;10.640;2022-07-29T04:24:21;16.60;85.00
44461;DHT22;30162;53.642;10.640;2022-07-29T04:26:47;16.70;84.70
44461;DHT22;30162;53.642;10.640;2022-07-29T04:29:13;16.70;84.30
44461;DHT22;30162;53.642;10.640;2022-07-29T04:31:40;16.80;83.70
44461;DHT22;30162;53.642;10.640;2022-07-29T04:34:06;16.80;84.20
44461;DHT22;30162;53.642;10.640;2022-07-29T04:36:32;16.90;84.20
44461;DHT22;30162;53.642;10.640;2022-07-29T04:38:57;16.90;83.80
44461;DHT22;30162;53.642;10.640;2022-07-29T04:41:23;17.00;84.00
44461;DHT22;30162;53.642;10.640;2022-07-29T04:43:49;17.10;83.20
44461;DHT22;30162;53.642;10.640;2022-07-29T04:46:14;17.10;83.90
44461;DHT22;30162;53.642;10.640;2022-07-29T04:48:40;17.10;83.60
44461;DHT22;30162;53.642;10.640;2022-07-29T04:51:05;17.00;83.90
44461;DHT22;30162;53.642;10.640;2022-07-29T04:53:31;17.00;84.20
44461;DHT22;30162;53.642;10.640;2022-07-29T04:55:57;17.10;84.50
44461;DHT22;30162;53.642;10.640;2022-07-29T04:58:22;17.10;84.30
44461;DHT22;30162;53.642;10.640;2022-07-29T05:00:49;17.10;84.20
44461;DHT22;30162;53.642;10.640;2022-07-29T05:03:15;17.20;84.50
44461;DHT22;30162;53.642;10.640;2022-07-29T05:05:40;17.10;84.80
44461;DHT22;30162;53.642;10.640;2022-07-29T05:08:06;17.20;85.10
44461;DHT22;30162;53.642;10.640;2022-07-29T05:10:32;17.20;84.30
44461;DHT22;30162;53.642;10.640;2022-07-29T05:12:59;17.30;84.70
44461;DHT22;30162;53.642;10.640;2022-07-29T05:15:24;17.60;84.20
44461;DHT22;30162;53.642;10.640;2022-07-29T05:17:50;17.70;83.50
44461;DHT22;30162;53.642;10.640;2022-07-29T05:20:15;17.70;82.80
44461;DHT22;30162;53.642;10.640;2022-07-29T05:22:41;18.00;82.60
44461;DHT22;30162;53.642;10.640;2022-07-29T05:25:07;18.20;82.00
44461;DHT22;30162;53.642;10.640;2022-07-29T05:27:35;18.40;82.40
44461;DHT22;30162;53.642;10.640;2022-07-29T05:30:00;18.60;81.70
44461;DHT22;30162;53.642;10.640;2022-07-29T05:32:26;18.80;80.80
44461;DHT22;30162;53.642;10.640;2022-07-29T05:34:51;19.10;79.90
44461;DHT22;30162;53.642;10.640;2022-07-29T05:37:20;19.20;79.30
44461;DHT22;30162;53.642;10.640;2022-07-29T05:39:46;19.40;79.00
44461;DHT22;30162;53.642;10.640;2022-07-29T05:42:12;19.40;79.20
44461;DHT22;30162;53.642;10.640;2022-07-29T05:44:38;19.40;79.20
44461;DHT22;30162;53.642;10.640;2022-07-29T05:47:04;19.50;79.10
44461;DHT22;30162;53.642;10.640;2022-07-29T05:49:29;19.60;78.50
44461;DHT22;30162;53.642;10.640;2022-07-29T05:51:55;19.70;78.60
44461;DHT22;30162;53.642;10.640;2022-07-29T05:54:20;19.80;78.30
44461;DHT22;30162;53.642;10.640;2022-07-29T05:56:46;19.80;78.50
44461;DHT22;30162;53.642;10.640;2022-07-29T05:59:12;19.90;78.30
44461;DHT22;30162;53.642;10.640;2022-07-29T06:01:37;19.80;78.30
44461;DHT22;30162;53.642;10.640;2022-07-29T06:04:05;19.90;78.80
44461;DHT22;30162;53.642;10.640;2022-07-29T06:06:32;20.00;79.20
44461;DHT22;30162;53.642;10.640;2022-07-29T06:08:58;20.10;78.70
44461;DHT22;30162;53.642;10.640;2022-07-29T06:11:23;20.10;78.90
44461;DHT22;30162;53.642;10.640;2022-07-29T06:13:49;20.00;78.90
44461;DHT22;30162;53.642;10.640;2022-07-29T06:16:14;20.00;79.20
44461;DHT22;30162;53.642;10.640;2022-07-29T06:18:40;20.10;79.60
44461;DHT22;30162;53.642;10.640;2022-07-29T06:21:09;20.10;80.20
44461;DHT22;30162;53.642;10.640;2022-07-29T06:23:38;20.10;80.00
44461;DHT22;30162;53.642;10.640;2022-07-29T06:26:04;20.10;79.30
44461;DHT22;30162;53.642;10.640;2022-07-29T06:28:30;20.00;80.30
44461;DHT22;30162;53.642;10.640;2022-07-29T06:30:56;20.20;79.90
44461;DHT22;30162;53.642;10.640;2022-07-29T06:33:22;20.20;79.90
44461;DHT22;30162;53.642;10.640;2022-07-29T06:35:47;20.40;80.30
44461;DHT22;30162;53.642;10.640;2022-07-29T06:38:14;20.70;79.10
44461;DHT22;30162;53.642;10.640;2022-07-29T06:40:44;21.10;78.40
44461;DHT22;30162;53.642;10.640;2022-07-29T06:43:33;21.20;78.60
44461;DHT22;30162;53.642;10.640;2022-07-29T06:46:05;21.40;77.80
44461;DHT22;30162;53.642;10.640;2022-07-29T06:48:31;21.70;78.10
44461;DHT22;30162;53.642;10.640;2022-07-29T06:50:57;21.70;76.40
44461;DHT22;30162;53.642;10.640;2022-07-29T06:53:23;22.00;76.30
44461;DHT22;30162;53.642;10.640;2022-07-29T06:55:49;22.20;75.80
44461;DHT22;30162;53.642;10.640;2022-07-29T06:58:15;22.30;75.90
44461;DHT22;30162;53.642;10.640;2022-07-29T07:00:44;22.40;76.40
44461;DHT22;30162;53.642;10.640;2022-07-29T07:03:10;22.60;76.60
44461;DHT22;30162;53.642;10.640;2022-07-29T07:05:36;22.80;75.00
44461;DHT22;30162;53.642;10.640;2022-07-29T07:08:01;23.10;73.70
44461;DHT22;30162;53.642;10.640;2022-07-29T07:10:27;23.20;72.90
44461;DHT22;30162;53.642;10.640;2022-07-29T07:12:52;23.50;71.20
44461;DHT22;30162;53.642;10.640;2022-07-29T07:15:18;23.60;70.30
44461;DHT22;30162;53.642;10.640;2022-07-29T07:17:48;23.80;69.80
44461;DHT22;30162;53.642;10.640;2022-07-29T07:20:14;23.80;70.30
44461;DHT22;30162;53.642;10.640;2022-07-29T07:22:40;23.60;70.40
44461;DHT22;30162;53.642;10.640;2022-07-29T07:25:06;23.60;69.90
44461;DHT22;30162;53.642;10.640;2022-07-29T07:27:31;23.60;69.60
44461;DHT22;30162;53.642;10.640;2022-07-29T07:29:57;23.60;70.30
44461;DHT22;30162;53.642;10.640;2022-07-29T07:32:22;23.70;70.60
44461;DHT22;30162;53.642;10.640;2022-07-29T07:34:48;23.70;70.20
44461;DHT22;30162;53.642;10.640;2022-07-29T07:37:14;23.80;71.50
44461;DHT22;30162;53.642;10.640;2022-07-29T07:39:40;23.80;71.30
44461;DHT22;30162;53.642;10.640;2022-07-29T07:42:06;24.00;70.20
44461;DHT22;30162;53.642;10.640;2022-07-29T07:44:31;24.10;70.10
44461;DHT22;30162;53.642;10.640;2022-07-29T07:46:57;24.20;70.20
44461;DHT22;30162;53.642;10.640;2022-07-29T07:49:23;24.10;69.50
44461;DHT22;30162;53.642;10.640;2022-07-29T07:51:49;24.30;69.40
44461;DHT22;30162;53.642;10.640;2022-07-29T07:54:14;24.50;69.80
44461;DHT22;30162;53.642;10.640;2022-07-29T07:56:40;24.60;68.40
44461;DHT22;30162;53.642;10.640;2022-07-29T07:59:06;24.80;67.80
44461;DHT22;30162;53.642;10.640;2022-07-29T08:01:31;24.80;68.30
44461;DHT22;30162;53.642;10.640;2022-07-29T08:03:57;24.80;67.00
44461;DHT22;30162;53.642;10.640;2022-07-29T08:06:22;24.80;67.20
44461;DHT22;30162;53.642;10.640;2022-07-29T08:08:50;25.00;68.30
44461;DHT22;30162;53.642;10.640;2022-07-29T08:11:16;25.20;67.70
44461;DHT22;30162;53.642;10.640;2022-07-29T08:13:42;25.30;66.10
44461;DHT22;30162;53.642;10.640;2022-07-29T08:16:08;25.10;67.60
44461;DHT22;30162;53.642;10.640;2022-07-29T08:18:38;25.20;67.30
44461;DHT22;30162;53.642;10.640;2022-07-29T08:21:04;25.00;68.20
44461;DHT22;30162;53.642;10.640;2022-07-29T08:23:30;25.00;67.90
44461;DHT22;30162;53.642;10.640;2022-07-29T08:26:07;25.20;67.90
44461;DHT22;30162;53.642;10.640;2022-07-29T08:28:40;25.30;67.80
44461;DHT22;30162;53.642;10.640;2022-07-29T08:31:07;25.30;66.60
44461;DHT22;30162;53.642;10.640;2022-07-29T08:33:33;25.30;66.40
44461;DHT22;30162;53.642;10.640;2022-07-29T08:35:59;25.70;67.10
44461;DHT22;30162;53.642;10.640;2022-07-29T08:38:25;25.90;66.10
44461;DHT22;30162;53.642;10.640;2022-07-29T08:40:52;26.10;66.00
44461;DHT22;30162;53.642;10.640;2022-07-29T08:43:18;26.40;65.40
44461;DHT22;30162;53.642;10.640;2022-07-29T08:45:46;26.70;65.40
44461;DHT22;30162;53.642;10.640;2022-07-29T08:48:13;27.20;63.60
44461;DHT22;30162;53.642;10.640;2022-07-29T08:50:40;27.30;62.20
44461;DHT22;30162;53.642;10.640;2022-07-29T08:53:09;27.20;63.20
44461;DHT22;30162;53.642;10.640;2022-07-29T08:55:38;27.70;62.40
44461;DHT22;30162;53.642;10.640;2022-07-29T08:58:04;28.10;61.50
44461;DHT22;30162;53.642;10.640;2022-07-29T09:00:30;27.90;62.10
44461;DHT22;30162;53.642;10.640;2022-07-29T09:02:57;27.90;60.30
44461;DHT22;30162;53.642;10.640;2022-07-29T09:05:25;28.00;60.30
44461;DHT22;30162;53.642;10.640;2022-07-29T09:07:52;28.10;59.60
44461;DHT22;30162;53.642;10.640;2022-07-29T09:10:18;28.10;59.70
44461;DHT22;30162;53.642;10.640;2022-07-29T09:12:44;28.40;59.20
44461;DHT22;30162;53.642;10.640;2022-07-29T09:15:09;28.50;59.00
44461;DHT22;30162;53.642;10.640;2022-07-29T09:17:45;28.40;58.70
44461;DHT22;30162;53.642;10.640;2022-07-29T09:20:13;28.30;58.20
44461;DHT22;30162;53.642;10.640;2022-07-29T09:22:39;28.10;58.90
44461;DHT22;30162;53.642;10.640;2022-07-29T09:25:05;28.50;57.60
44461;DHT22;30162;53.642;10.640;2022-07-29T09:27:30;29.00;58.70
44461;DHT22;30162;53.642;10.640;2022-07-29T09:30:07;29.20;56.70
44461;DHT22;30162;53.642;10.640;2022-07-29T09:32:57;29.40;58.40
44461;DHT22;30162;53.642;10.640;2022-07-29T09:35:25;29.80;56.80
44461;DHT22;30162;53.642;10.640;2022-07-29T09:37:51;29.60;56.70
44461;DHT22;30162;53.642;10.640;2022-07-29T09:40:22;29.30;57.60
44461;DHT22;30162;53.642;10.640;2022-07-29T09:42:48;29.10;58.50
44461;DHT22;30162;53.642;10.640;2022-07-29T09:45:33;29.50;58.10
44461;DHT22;30162;53.642;10.640;2022-07-29T09:47:59;30.00;57.40
44461;DHT22;30162;53.642;10.640;2022-07-29T09:50:38;30.20;57.60
44461;DHT22;30162;53.642;10.640;2022-07-29T09:53:05;30.20;54.70
44461;DHT22;30162;53.642;10.640;2022-07-29T09:55:30;30.40;56.30
44461;DHT22;30162;53.642;10.640;2022-07-29T09:58:18;30.80;57.70
44461;DHT22;30162;53.642;10.640;2022-07-29T10:00:45;30.60;66.10
44461;DHT22;30162;53.642;10.640;2022-07-29T10:03:12;31.00;62.60
44461;DHT22;30162;53.642;10.640;2022-07-29T10:05:37;31.30;62.10
44461;DHT22;30162;53.642;10.640;2022-07-29T10:08:04;31.60;60.90
44461;DHT22;30162;53.642;10.640;2022-07-29T10:10:36;31.90;63.10
44461;DHT22;30162;53.642;10.640;2022-07-29T10:13:03;31.50;62.50
44461;DHT22;30162;53.642;10.640;2022-07-29T10:15:32;31.30;61.30
44461;DHT22;30162;53.642;10.640;2022-07-29T10:17:59;31.40;61.20
44461;DHT22;30162;53.642;10.640;2022-07-29T10:20:27;31.50;61.40
44461;DHT22;30162;53.642;10.640;2022-07-29T10:22:54;31.60;60.60
44461;DHT22;30162;53.642;10.640;2022-07-29T10:25:20;31.70;60.60
44461;DHT22;30162;53.642;10.640;2022-07-29T10:27:48;31.40;58.00
44461;DHT22;30162;53.642;10.640;2022-07-29T10:30:15;31.40;58.80
44461;DHT22;30162;53.642;10.640;2022-07-29T10:33:09;31.60;56.90
44461;DHT22;30162;53.642;10.640;2022-07-29T10:36:26;30.90;57.80
44461;DHT22;30162;53.642;10.640;2022-07-29T10:39:17;30.60;57.80
44461;DHT22;30162;53.642;10.640;2022-07-29T10:42:09;30.90;58.50
44461;DHT22;30162;53.642;10.640;2022-07-29T10:44:40;31.40;58.40
44461;DHT22;30162;53.642;10.640;2022-07-29T10:47:06;31.50;57.40
44461;DHT22;30162;53.642;10.640;2022-07-29T10:49:31;31.10;58.60
44461;DHT22;30162;53.642;10.640;2022-07-29T10:52:08;31.10;56.20
44461;DHT22;30162;53.642;10.640;2022-07-29T10:59:46;31.90;55.60
44461;DHT22;30162;53.642;10.640;2022-07-29T11:07:32;32.50;56.30
44461;DHT22;30162;53.642;10.640;2022-07-29T11:15:10;32.30;56.40
44461;DHT22;30162;53.642;10.640;2022-07-29T11:23:13;31.60;57.30
44461;DHT22;30162;53.642;10.640;2022-07-29T11:25:42;31.90;57.20
44461;DHT22;30162;53.642;10.640;2022-07-29T11:28:15;31.90;58.00
44461;DHT22;30162;53.642;10.640;2022-07-29T11:30:52;32.10;58.50
44461;DHT22;30162;53.642;10.640;2022-07-29T11:33:31;31.90;58.10
44461;DHT22;30162;53.642;10.640;2022-07-29T11:36:12;31.90;57.50
44461;DHT22;30162;53.642;10.640;2022-07-29T11:38:39;31.60;57.00
44461;DHT22;30162;53.642;10.640;2022-07-29T11:41:25;31.40;57.40
44461;DHT22;30162;53.642;10.640;2022-07-29T11:43:59;30.70;56.40
44461;DHT22;30162;53.642;10.640;2022-07-29T11:49:11;31.10;58.20
44461;DHT22;30162;53.642;10.640;2022-07-29T11:51:37;31.20;57.40
44461;DHT22;30162;53.642;10.640;2022-07-29T11:54:03;30.90;57.20
44461;DHT22;30162;53.642;10.640;2022-07-29T11:56:31;30.20;56.70
44461;DHT22;30162;53.642;10.640;2022-07-29T11:59:05;30.30;58.90
44461;DHT22;30162;53.642;10.640;2022-07-29T12:01:31;30.50;57.80
44461;DHT22;30162;53.642;10.640;2022-07-29T12:04:07;30.80;57.50
44461;DHT22;30162;53.642;10.640;2022-07-29T12:06:34;30.90;58.90
44461;DHT22;30162;53.642;10.640;2022-07-29T12:08:59;31.00;57.00
44461;DHT22;30162;53.642;10.640;2022-07-29T12:11:26;31.20;57.80
44461;DHT22;30162;53.642;10.640;2022-07-29T12:13:51;31.40;57.40
44461;DHT22;30162;53.642;10.640;2022-07-29T12:16:18;31.30;57.00
44461;DHT22;30162;53.642;10.640;2022-07-29T12:18:56;31.20;56.90
44461;DHT22;30162;53.642;10.640;2022-07-29T12:21:21;31.40;56.20
44461;DHT22;30162;53.642;10.640;2022-07-29T12:23:54;31.10;57.50
44461;DHT22;30162;53.642;10.640;2022-07-29T12:26:20;31.30;57.20
44461;DHT22;30162;53.642;10.640;2022-07-29T12:28:46;31.50;55.60
44461;DHT22;30162;53.642;10.640;2022-07-29T12:31:15;31.60;55.30
44461;DHT22;30162;53.642;10.640;2022-07-29T12:33:41;31.40;54.50
44461;DHT22;30162;53.642;10.640;2022-07-29T12:36:07;31.60;56.50
44461;DHT22;30162;53.642;10.640;2022-07-29T12:38:36;32.10;56.80
44461;DHT22;30162;53.642;10.640;2022-07-29T12:41:02;31.90;60.90
44461;DHT22;30162;53.642;10.640;2022-07-29T12:43:29;31.70;61.90
44461;DHT22;30162;53.642;10.640;2022-07-29T12:45:56;31.80;63.10
44461;DHT22;30162;53.642;10.640;2022-07-29T12:48:40;31.50;61.80
44461;DHT22;30162;53.642;10.640;2022-07-29T12:51:07;31.20;62.90
44461;DHT22;30162;53.642;10.640;2022-07-29T12:53:34;31.00;63.40
44461;DHT22;30162;53.642;10.640;2022-07-29T12:56:01;30.80;64.30
44461;DHT22;30162;53.642;10.640;2022-07-29T12:58:28;30.80;64.30
44461;DHT22;30162;53.642;10.640;2022-07-29T13:03:28;30.50;64.60
44461;DHT22;30162;53.642;10.640;2022-07-29T13:05:54;30.50;65.60
44461;DHT22;30162;53.642;10.640;2022-07-29T13:08:20;30.50;65.90
44461;DHT22;30162;53.642;10.640;2022-07-29T13:10:45;30.30;66.60
44461;DHT22;30162;53.642;10.640;2022-07-29T13:13:13;30.00;66.30
44461;DHT22;30162;53.642;10.640;2022-07-29T13:15:43;29.60;66.40
44461;DHT22;30162;53.642;10.640;2022-07-29T13:18:34;29.60;66.40
44461;DHT22;30162;53.642;10.640;2022-07-29T13:21:14;29.60;67.10
44461;DHT22;30162;53.642;10.640;2022-07-29T13:23:41;29.40;66.80
44461;DHT22;30162;53.642;10.640;2022-07-29T13:26:08;29.50;67.80
44461;DHT22;30162;53.642;10.640;2022-07-29T13:28:34;29.40;68.00
44461;DHT22;30162;53.642;10.640;2022-07-29T13:31:00;29.30;67.60
44461;DHT22;30162;53.642;10.640;2022-07-29T13:33:26;29.20;67.60
44461;DHT22;30162;53.642;10.640;2022-07-29T13:35:51;29.10;67.70
44461;DHT22;30162;53.642;10.640;2022-07-29T13:38:17;29.10;68.00
44461;DHT22;30162;53.642;10.640;2022-07-29T13:40:42;29.00;68.50
44461;DHT22;30162;53.642;10.640;2022-07-29T13:43:11;29.00;69.30
44461;DHT22;30162;53.642;10.640;2022-07-29T13:45:37;28.80;69.10
44461;DHT22;30162;53.642;10.640;2022-07-29T13:48:03;28.50;69.40
44461;DHT22;30162;53.642;10.640;2022-07-29T13:50:29;28.60;70.00
44461;DHT22;30162;53.642;10.640;2022-07-29T13:52:54;28.60;70.20
44461;DHT22;30162;53.642;10.640;2022-07-29T13:55:20;28.70;70.30
44461;DHT22;30162;53.642;10.640;2022-07-29T13:57:46;28.70;71.00
44461;DHT22;30162;53.642;10.640;2022-07-29T14:00:12;28.50;71.00
44461;DHT22;30162;53.642;10.640;2022-07-29T14:02:38;28.40;71.80
44461;DHT22;30162;53.642;10.640;2022-07-29T14:05:08;28.40;71.90
44461;DHT22;30162;53.642;10.640;2022-07-29T14:07:35;28.60;72.50
44461;DHT22;30162;53.642;10.640;2022-07-29T14:10:00;28.80;72.30
44461;DHT22;30162;53.642;10.640;2022-07-29T14:12:26;28.80;71.30
44461;DHT22;30162;53.642;10.640;2022-07-29T14:14:51;28.80;72.00
44461;DHT22;30162;53.642;10.640;2022-07-29T14:17:17;28.80;72.60
44461;DHT22;30162;53.642;10.640;2022-07-29T14:19:43;28.50;72.70
44461;DHT22;30162;53.642;10.640;2022-07-29T14:22:08;28.50;72.90
44461;DHT22;30162;53.642;10.640;2022-07-29T14:24:35;28.40;72.80
44461;DHT22;30162;53.642;10.640;2022-07-29T14:27:02;28.40;73.10
44461;DHT22;30162;53.642;10.640;2022-07-29T14:29:28;28.50;73.10
44461;DHT22;30162;53.642;10.640;2022-07-29T14:31:53;28.50;73.60
44461;DHT22;30162;53.642;10.640;2022-07-29T14:34:19;28.30;73.90
44461;DHT22;30162;53.642;10.640;2022-07-29T14:36:44;28.30;74.30
44461;DHT22;30162;53.642;10.640;2022-07-29T14:39:10;28.50;74.50
44461;DHT22;30162;53.642;10.640;2022-07-29T14:41:36;28.60;74.10
44461;DHT22;30162;53.642;10.640;2022-07-29T14:44:01;29.10;74.40
44461;DHT22;30162;53.642;10.640;2022-07-29T14:46:27;29.50;74.30
44461;DHT22;30162;53.642;10.640;2022-07-29T14:48:53;29.60;74.00
44461;DHT22;30162;53.642;10.640;2022-07-29T14:51:19;29.80;74.10
44461;DHT22;30162;53.642;10.640;2022-07-29T14:53:45;29.80;73.20
44461;DHT22;30162;53.642;10.640;2022-07-29T14:56:11;29.80;73.50
44461;DHT22;30162;53.642;10.640;2022-07-29T14:58:36;29.80;73.80
44461;DHT22;30162;53.642;10.640;2022-07-29T15:01:02;29.90;73.40
44461;DHT22;30162;53.642;10.640;2022-07-29T15:03:28;29.90;72.40
44461;DHT22;30162;53.642;10.640;2022-07-29T15:05:54;29.70;72.00
44461;DHT22;30162;53.642;10.640;2022-07-29T15:08:19;29.70;72.80
44461;DHT22;30162;53.642;10.640;2022-07-29T15:10:45;29.80;73.50
44461;DHT22;30162;53.642;10.640;2022-07-29T15:13:11;29.90;72.70
44461;DHT22;30162;53.642;10.640;2022-07-29T15:15:36;30.10;73.10
44461;DHT22;30162;53.642;10.640;2022-07-29T15:18:02;30.10;72.60
44461;DHT22;30162;53.642;10.640;2022-07-29T15:20:27;30.20;73.10
44461;DHT22;30162;53.642;10.640;2022-07-29T15:22:54;29.90;73.30
44461;DHT22;30162;53.642;10.640;2022-07-29T15:25:21;29.60;73.90
44461;DHT22;30162;53.642;10.640;2022-07-29T15:27:47;29.80;74.20
44461;DHT22;30162;53.642;10.640;2022-07-29T15:30:13;29.80;74.30
44461;DHT22;30162;53.642;10.640;2022-07-29T15:32:40;30.00;73.50
44461;DHT22;30162;53.642;10.640;2022-07-29T15:35:06;30.10;72.70
44461;DHT22;30162;53.642;10.640;2022-07-29T15:37:32;29.70;74.00
44461;DHT22;30162;53.642;10.640;2022-07-29T15:40:00;29.50;74.90
44461;DHT22;30162;53.642;10.640;2022-07-29T15:42:25;29.20;75.00
44461;DHT22;30162;53.642;10.640;2022-07-29T15:44:51;29.00;75.40
44461;DHT22;30162;53.642;10.640;2022-07-29T15:47:16;29.20;75.30
44461;DHT22;30162;53.642;10.640;2022-07-29T15:49:42;29.20;75.60
44461;DHT22;30162;53.642;10.640;2022-07-29T15:52:09;29.20;75.70
44461;DHT22;30162;53.642;10.640;2022-07-29T15:54:39;29.50;76.80
44461;DHT22;30162;53.642;10.640;2022-07-29T15:57:05;29.70;76.50
44461;DHT22;30162;53.642;10.640;2022-07-29T15:59:32;29.80;75.70